sensor_id;sensor_type;location;lat;lon;timestamp;temperature;humidity
22290;DHT22;11313;50.116;8.424;2023-06-14T00:01:01;24.00;46.20
22290;DHT22;11313;50.116;8.424;2023-06-14T00:03:28;24.00;46.20
22290;DHT22;11313;50.116;8.424;2023-06-14T00:05:54;24.00;46.30
22290;DHT22;11313;50.116;8.424;2023-06-14T00:08:20;24.00;46.30
22290;DHT22;11313;50.116;8.424;2023-06-14T00:10:48;24.00;46.30
22290;DHT22;11313;50.116;8.424;2023-06-14T00:13:13;24.00;46.30
22290;DHT22;11313;50.116;8.424;2023-06-14T00:15:39;24.00;46.30
22290;DHT22;11313;50.116;8.424;2023-06-14T00:18:05;24.00;46.30
22290;DHT22;11313;50.116;8.424;2023-06-14T00:20:32;24.00;46.30
22290;DHT22;11313;50.116;8.424;2023-06-14T00:22:59;24.00;46.30
22290;DHT22;11313;50.116;8.424;2023-06-14T00:25:25;24.00;46.30
22290;DHT22;11313;50.116;8.424;2023-06-14T00:27:51;24.00;46.40
22290;DHT22;11313;50.116;8.424;2023-06-14T00:30:17;24.00;46.40
22290;DHT22;11313;50.116;8.424;2023-06-14T00:32:43;24.00;47.00
22290;DHT22;11313;50.116;8.424;2023-06-14T00:35:09;24.00;46.40
22290;DHT22;11313;50.116;8.424;2023-06-14T00:37:35;24.00;46.40
22290;DHT22;11313;50.116;8.424;2023-06-14T00:40:01;24.00;46.40
22290;DHT22;11313;50.116;8.424;2023-06-14T00:42:27;24.00;46.40
22290;DHT22;11313;50.116;8.424;2023-06-14T00:44:53;24.00;46.40
22290;DHT22;11313;50.116;8.424;2023-06-14T00:47:19;24.00;46.40
22290;DHT22;11313;50.116;8.424;2023-06-14T00:49:52;24.00;46.40
22290;DHT22;11313;50.116;8.424;2023-06-14T00:52:19;24.00;46.40
22290;DHT22;11313;50.116;8.424;2023-06-14T00:54:45;24.00;46.40
22290;DHT22;11313;50.116;8.424;2023-06-14T00:57:11;24.00;46.40
22290;DHT22;11313;50.116;8.424;2023-06-14T00:59:42;24.10;46.50
22290;DHT22;11313;50.116;8.424;2023-06-14T01:02:08;24.00;46.40
22290;DHT22;11313;50.116;8.424;2023-06-14T01:04:34;24.00;46.50
22290;DHT22;11313;50.116;8.424;2023-06-14T01:07:07;24.00;46.50
22290;DHT22;11313;50.116;8.424;2023-06-14T01:12:47;24.10;46.50
22290;DHT22;11313;50.116;8.424;2023-06-14T01:15:16;24.00;46.50
22290;DHT22;11313;50.116;8.424;2023-06-14T01:17:42;24.10;46.50
22290;DHT22;11313;50.116;8.424;2023-06-14T01:20:12;24.10;46.50
22290;DHT22;11313;50.116;8.424;2023-06-14T01:22:51;24.10;46.50
22290;DHT22;11313;50.116;8.424;2023-06-14T01:25:18;24.10;46.50
22290;DHT22;11313;50.116;8.424;2023-06-14T01:27:49;24.10;46.50
22290;DHT22;11313;50.116;8.424;2023-06-14T01:30:17;24.10;46.60
22290;DHT22;11313;50.116;8.424;2023-06-14T01:32:43;24.10;46.50
22290;DHT22;11313;50.116;8.424;2023-06-14T01:35:09;24.10;46.50
22290;DHT22;11313;50.116;8.424;2023-06-14T01:37:35;24.10;46.50
22290;DHT22;11313;50.116;8.424;2023-06-14T01:40:04;24.10;46.60
22290;DHT22;11313;50.116;8.424;2023-06-14T01:42:33;24.10;46.60
22290;DHT22;11313;50.116;8.424;2023-06-14T01:45:01;24.10;46.60
22290;DHT22;11313;50.116;8.424;2023-06-14T01:47:27;24.10;46.60
22290;DHT22;11313;50.116;8.424;2023-06-14T01:49:53;24.10;46.60
22290;DHT22;11313;50.116;8.424;2023-06-14T01:52:18;24.10;46.60
22290;DHT22;11313;50.116;8.424;2023-06-14T01:54:44;24.10;46.60
22290;DHT22;11313;50.116;8.424;2023-06-14T01:57:11;24.10;46.60
22290;DHT22;11313;50.116;8.424;2023-06-14T01:59:37;24.10;46.60
22290;DHT22;11313;50.116;8.424;2023-06-14T02:02:03;24.10;46.60
22290;DHT22;11313;50.116;8.424;2023-06-14T02:04:28;24.10;46.60
22290;DHT22;11313;50.116;8.424;2023-06-14T02:06:54;24.10;46.60
22290;DHT22;11313;50.116;8.424;2023-06-14T02:09:19;24.10;46.60
22290;DHT22;11313;50.116;8.424;2023-06-14T02:11:45;24.10;46.60
22290;DHT22;11313;50.116;8.424;2023-06-14T02:14:10;24.10;46.60
22290;DHT22;11313;50.116;8.424;2023-06-14T02:16:37;24.10;46.60
22290;DHT22;11313;50.116;8.424;2023-06-14T02:19:04;24.10;46.60
22290;DHT22;11313;50.116;8.424;2023-06-14T02:21:30;24.10;46.60
22290;DHT22;11313;50.116;8.424;2023-06-14T02:23:55;24.10;46.60
22290;DHT22;11313;50.116;8.424;2023-06-14T02:26:21;24.10;46.60
22290;DHT22;11313;50.116;8.424;2023-06-14T02:28:48;24.10;46.70
22290;DHT22;11313;50.116;8.424;2023-06-14T02:31:13;24.10;46.70
22290;DHT22;11313;50.116;8.424;2023-06-14T02:33:39;24.10;46.70
22290;DHT22;11313;50.116;8.424;2023-06-14T02:36:05;24.10;46.70
22290;DHT22;11313;50.116;8.424;2023-06-14T02:38:31;24.10;46.70
22290;DHT22;11313;50.116;8.424;2023-06-14T02:40:57;24.10;46.60
22290;DHT22;11313;50.116;8.424;2023-06-14T02:43:24;24.20;46.70
22290;DHT22;11313;50.116;8.424;2023-06-14T02:45:50;24.10;46.70
22290;DHT22;11313;50.116;8.424;2023-06-14T02:48:15;24.20;46.70
22290;DHT22;11313;50.116;8.424;2023-06-14T02:50:41;24.20;46.70
22290;DHT22;11313;50.116;8.424;2023-06-14T02:53:07;24.20;46.70
22290;DHT22;11313;50.116;8.424;2023-06-14T02:55:33;24.20;46.70
22290;DHT22;11313;50.116;8.424;2023-06-14T02:57:58;24.20;46.70
22290;DHT22;11313;50.116;8.424;2023-06-14T03:00:24;24.20;46.70
22290;DHT22;11313;50.116;8.424;2023-06-14T03:02:49;24.20;46.70
22290;DHT22;11313;50.116;8.424;2023-06-14T03:05:16;24.20;46.70
22290;DHT22;11313;50.116;8.424;2023-06-14T03:07:46;24.20;46.70
22290;DHT22;11313;50.116;8.424;2023-06-14T03:10:12;24.20;46.70
22290;DHT22;11313;50.116;8.424;2023-06-14T03:12:38;24.30;46.70
22290;DHT22;11313;50.116;8.424;2023-06-14T03:15:05;24.20;46.70
22290;DHT22;11313;50.116;8.424;2023-06-14T03:17:30;24.20;46.60
22290;DHT22;11313;50.116;8.424;2023-06-14T03:19:59;24.30;46.70
22290;DHT22;11313;50.116;8.424;2023-06-14T03:22:25;24.30;46.70
22290;DHT22;11313;50.116;8.424;2023-06-14T03:24:51;24.30;46.70
22290;DHT22;11313;50.116;8.424;2023-06-14T03:27:17;24.30;46.60
22290;DHT22;11313;50.116;8.424;2023-06-14T03:29:43;24.30;46.60
22290;DHT22;11313;50.116;8.424;2023-06-14T03:32:09;24.30;46.60
22290;DHT22;11313;50.116;8.424;2023-06-14T03:34:35;24.30;46.60
22290;DHT22;11313;50.116;8.424;2023-06-14T03:37:01;24.30;46.60
22290;DHT22;11313;50.116;8.424;2023-06-14T03:39:26;24.30;46.60
22290;DHT22;11313;50.116;8.424;2023-06-14T03:41:52;24.30;46.60
22290;DHT22;11313;50.116;8.424;2023-06-14T03:44:18;24.40;46.60
22290;DHT22;11313;50.116;8.424;2023-06-14T03:46:44;24.30;46.50
22290;DHT22;11313;50.116;8.424;2023-06-14T03:49:10;24.40;46.60
22290;DHT22;11313;50.116;8.424;2023-06-14T03:51:36;24.40;46.60
22290;DHT22;11313;50.116;8.424;2023-06-14T03:54:02;24.40;46.50
22290;DHT22;11313;50.116;8.424;2023-06-14T03:56:27;24.40;46.50
22290;DHT22;11313;50.116;8.424;2023-06-14T03:58:53;24.40;46.50
22290;DHT22;11313;50.116;8.424;2023-06-14T04:01:18;24.40;46.60
22290;DHT22;11313;50.116;8.424;2023-06-14T04:03:44;24.40;46.50
22290;DHT22;11313;50.116;8.424;2023-06-14T04:06:09;24.40;46.50
22290;DHT22;11313;50.116;8.424;2023-06-14T04:08:35;24.40;46.50
22290;DHT22;11313;50.116;8.424;2023-06-14T04:11:01;24.50;46.50
22290;DHT22;11313;50.116;8.424;2023-06-14T04:13:26;24.50;46.60
22290;DHT22;11313;50.116;8.424;2023-06-14T04:15:52;24.50;46.50
22290;DHT22;11313;50.116;8.424;2023-06-14T04:18:18;24.50;46.50
22290;DHT22;11313;50.116;8.424;2023-06-14T04:20:45;24.40;46.40
22290;DHT22;11313;50.116;8.424;2023-06-14T04:23:17;24.50;46.50
22290;DHT22;11313;50.116;8.424;2023-06-14T04:25:44;24.50;46.40
22290;DHT22;11313;50.116;8.424;2023-06-14T04:28:14;24.50;46.70
22290;DHT22;11313;50.116;8.424;2023-06-14T04:30:41;24.50;44.50
22290;DHT22;11313;50.116;8.424;2023-06-14T04:33:07;24.40;43.50
22290;DHT22;11313;50.116;8.424;2023-06-14T04:35:33;24.30;42.70
22290;DHT22;11313;50.116;8.424;2023-06-14T04:38:03;24.20;42.60
22290;DHT22;11313;50.116;8.424;2023-06-14T04:40:36;24.10;42.70
22290;DHT22;11313;50.116;8.424;2023-06-14T04:43:10;24.10;42.80
22290;DHT22;11313;50.116;8.424;2023-06-14T04:45:42;24.10;42.80
22290;DHT22;11313;50.116;8.424;2023-06-14T04:48:10;24.10;42.80
22290;DHT22;11313;50.116;8.424;2023-06-14T04:50:35;24.10;42.70
22290;DHT22;11313;50.116;8.424;2023-06-14T04:53:01;24.00;42.50
22290;DHT22;11313;50.116;8.424;2023-06-14T04:55:26;24.00;42.70
22290;DHT22;11313;50.116;8.424;2023-06-14T04:57:52;24.00;43.10
22290;DHT22;11313;50.116;8.424;2023-06-14T05:00:20;24.00;43.20
22290;DHT22;11313;50.116;8.424;2023-06-14T05:02:46;24.00;42.90
22290;DHT22;11313;50.116;8.424;2023-06-14T05:05:12;23.90;42.70
22290;DHT22;11313;50.116;8.424;2023-06-14T05:07:38;24.00;42.80
22290;DHT22;11313;50.116;8.424;2023-06-14T05:10:04;23.90;42.80
22290;DHT22;11313;50.116;8.424;2023-06-14T05:12:30;23.90;42.80
22290;DHT22;11313;50.116;8.424;2023-06-14T05:14:55;23.90;42.80
22290;DHT22;11313;50.116;8.424;2023-06-14T05:17:23;23.90;42.80
22290;DHT22;11313;50.116;8.424;2023-06-14T05:19:49;23.90;42.60
22290;DHT22;11313;50.116;8.424;2023-06-14T05:22:15;23.90;42.90
22290;DHT22;11313;50.116;8.424;2023-06-14T05:24:40;23.90;43.00
22290;DHT22;11313;50.116;8.424;2023-06-14T05:27:07;23.90;43.00
22290;DHT22;11313;50.116;8.424;2023-06-14T05:29:32;23.90;43.00
22290;DHT22;11313;50.116;8.424;2023-06-14T05:31:58;23.90;43.00
22290;DHT22;11313;50.116;8.424;2023-06-14T05:34:23;23.90;42.70
22290;DHT22;11313;50.116;8.424;2023-06-14T05:36:49;24.00;43.00
22290;DHT22;11313;50.116;8.424;2023-06-14T05:39:14;23.90;43.00
22290;DHT22;11313;50.116;8.424;2023-06-14T05:41:40;24.00;43.20
22290;DHT22;11313;50.116;8.424;2023-06-14T05:44:05;24.00;43.00
22290;DHT22;11313;50.116;8.424;2023-06-14T05:46:31;23.90;43.10
22290;DHT22;11313;50.116;8.424;2023-06-14T05:48:56;24.00;43.40
22290;DHT22;11313;50.116;8.424;2023-06-14T05:51:22;24.00;42.90
22290;DHT22;11313;50.116;8.424;2023-06-14T05:53:50;24.00;42.30
22290;DHT22;11313;50.116;8.424;2023-06-14T05:56:16;24.00;42.60
22290;DHT22;11313;50.116;8.424;2023-06-14T05:58:43;24.10;42.90
22290;DHT22;11313;50.116;8.424;2023-06-14T06:01:08;24.10;42.90
22290;DHT22;11313;50.116;8.424;2023-06-14T06:03:34;24.20;43.00
22290;DHT22;11313;50.116;8.424;2023-06-14T06:06:00;24.30;43.10
22290;DHT22;11313;50.116;8.424;2023-06-14T06:08:26;24.40;43.20
22290;DHT22;11313;50.116;8.424;2023-06-14T06:10:52;24.40;43.20
22290;DHT22;11313;50.116;8.424;2023-06-14T06:13:17;24.50;43.40
22290;DHT22;11313;50.116;8.424;2023-06-14T06:15:43;24.50;43.30
22290;DHT22;11313;50.116;8.424;2023-06-14T06:18:09;24.50;43.40
22290;DHT22;11313;50.116;8.424;2023-06-14T06:20:34;24.50;43.30
22290;DHT22;11313;50.116;8.424;2023-06-14T06:23:01;24.60;43.40
22290;DHT22;11313;50.116;8.424;2023-06-14T06:25:27;24.60;43.40
22290;DHT22;11313;50.116;8.424;2023-06-14T06:27:53;24.60;43.40
22290;DHT22;11313;50.116;8.424;2023-06-14T06:30:20;24.70;43.50
22290;DHT22;11313;50.116;8.424;2023-06-14T06:32:46;24.70;43.50
22290;DHT22;11313;50.116;8.424;2023-06-14T06:35:11;24.70;43.50
22290;DHT22;11313;50.116;8.424;2023-06-14T06:37:38;24.70;43.50
22290;DHT22;11313;50.116;8.424;2023-06-14T06:40:04;24.70;43.60
22290;DHT22;11313;50.116;8.424;2023-06-14T06:42:31;24.80;43.60
22290;DHT22;11313;50.116;8.424;2023-06-14T06:44:57;24.80;43.60
22290;DHT22;11313;50.116;8.424;2023-06-14T06:47:22;24.80;43.70
22290;DHT22;11313;50.116;8.424;2023-06-14T06:49:47;24.80;43.70
22290;DHT22;11313;50.116;8.424;2023-06-14T06:52:13;24.80;44.40
22290;DHT22;11313;50.116;8.424;2023-06-14T06:54:39;24.90;43.80
22290;DHT22;11313;50.116;8.424;2023-06-14T06:57:05;24.90;43.80
22290;DHT22;11313;50.116;8.424;2023-06-14T06:59:32;24.90;43.80
22290;DHT22;11313;50.116;8.424;2023-06-14T07:01:57;24.90;43.80
22290;DHT22;11313;50.116;8.424;2023-06-14T07:04:23;24.90;43.80
22290;DHT22;11313;50.116;8.424;2023-06-14T07:06:48;24.90;43.90
22290;DHT22;11313;50.116;8.424;2023-06-14T07:09:14;24.90;43.90
22290;DHT22;11313;50.116;8.424;2023-06-14T07:11:43;24.90;44.00
22290;DHT22;11313;50.116;8.424;2023-06-14T07:14:09;24.90;44.00
22290;DHT22;11313;50.116;8.424;2023-06-14T07:16:35;24.90;44.00
22290;DHT22;11313;50.116;8.424;2023-06-14T07:19:02;24.90;44.10
22290;DHT22;11313;50.116;8.424;2023-06-14T07:21:27;24.90;44.10
22290;DHT22;11313;50.116;8.424;2023-06-14T07:23:53;24.90;44.10
22290;DHT22;11313;50.116;8.424;2023-06-14T07:26:19;25.00;44.80
22290;DHT22;11313;50.116;8.424;2023-06-14T07:28:45;25.00;44.20
22290;DHT22;11313;50.116;8.424;2023-06-14T07:31:11;25.00;44.20
22290;DHT22;11313;50.116;8.424;2023-06-14T07:33:37;25.00;44.30
22290;DHT22;11313;50.116;8.424;2023-06-14T07:36:03;25.00;44.30
22290;DHT22;11313;50.116;8.424;2023-06-14T07:38:29;25.00;44.30
22290;DHT22;11313;50.116;8.424;2023-06-14T07:40:54;25.00;44.20
22290;DHT22;11313;50.116;8.424;2023-06-14T07:43:20;25.00;44.30
22290;DHT22;11313;50.116;8.424;2023-06-14T07:45:45;25.00;44.30
22290;DHT22;11313;50.116;8.424;2023-06-14T07:48:11;25.00;44.30
22290;DHT22;11313;50.116;8.424;2023-06-14T07:50:36;25.00;44.30
22290;DHT22;11313;50.116;8.424;2023-06-14T07:53:02;25.00;44.40
22290;DHT22;11313;50.116;8.424;2023-06-14T07:55:27;25.00;44.30
22290;DHT22;11313;50.116;8.424;2023-06-14T07:57:54;25.10;44.50
22290;DHT22;11313;50.116;8.424;2023-06-14T08:00:20;25.00;44.40
22290;DHT22;11313;50.116;8.424;2023-06-14T08:02:45;25.10;44.40
22290;DHT22;11313;50.116;8.424;2023-06-14T08:05:12;25.10;44.40
22290;DHT22;11313;50.116;8.424;2023-06-14T08:07:38;25.10;44.50
22290;DHT22;11313;50.116;8.424;2023-06-14T08:10:05;25.10;44.50
22290;DHT22;11313;50.116;8.424;2023-06-14T08:12:31;25.10;44.50
22290;DHT22;11313;50.116;8.424;2023-06-14T08:14:57;25.10;44.50
22290;DHT22;11313;50.116;8.424;2023-06-14T08:17:22;25.10;44.60
22290;DHT22;11313;50.116;8.424;2023-06-14T08:19:48;25.10;44.50
22290;DHT22;11313;50.116;8.424;2023-06-14T08:22:13;25.10;44.60
22290;DHT22;11313;50.116;8.424;2023-06-14T08:24:39;25.10;44.60
22290;DHT22;11313;50.116;8.424;2023-06-14T08:27:06;25.10;44.60
22290;DHT22;11313;50.116;8.424;2023-06-14T08:29:31;25.10;44.60
22290;DHT22;11313;50.116;8.424;2023-06-14T08:31:57;25.10;44.60
22290;DHT22;11313;50.116;8.424;2023-06-14T08:34:23;25.10;44.60
22290;DHT22;11313;50.116;8.424;2023-06-14T08:36:52;25.10;44.60
22290;DHT22;11313;50.116;8.424;2023-06-14T08:39:17;25.10;44.60
22290;DHT22;11313;50.116;8.424;2023-06-14T08:41:46;25.10;44.60
22290;DHT22;11313;50.116;8.424;2023-06-14T08:44:12;25.10;44.60
22290;DHT22;11313;50.116;8.424;2023-06-14T08:46:38;25.10;44.60
22290;DHT22;11313;50.116;8.424;2023-06-14T08:49:04;25.10;44.60
22290;DHT22;11313;50.116;8.424;2023-06-14T08:51:32;25.10;44.60
22290;DHT22;11313;50.116;8.424;2023-06-14T08:54:02;25.10;44.60
22290;DHT22;11313;50.116;8.424;2023-06-14T08:56:30;25.10;44.60
22290;DHT22;11313;50.116;8.424;2023-06-14T08:58:57;25.10;44.60
22290;DHT22;11313;50.116;8.424;2023-06-14T09:01:26;25.10;44.60
22290;DHT22;11313;50.116;8.424;2023-06-14T09:03:52;25.10;44.60
22290;DHT22;11313;50.116;8.424;2023-06-14T09:06:21;25.10;44.60
22290;DHT22;11313;50.116;8.424;2023-06-14T09:08:48;25.20;44.70
22290;DHT22;11313;50.116;8.424;2023-06-14T09:11:16;25.20;44.80
22290;DHT22;11313;50.116;8.424;2023-06-14T09:13:44;25.20;44.80
22290;DHT22;11313;50.116;8.424;2023-06-14T09:16:10;25.10;44.70
22290;DHT22;11313;50.116;8.424;2023-06-14T09:18:41;25.20;44.80
22290;DHT22;11313;50.116;8.424;2023-06-14T09:21:07;25.20;44.80
22290;DHT22;11313;50.116;8.424;2023-06-14T09:23:40;25.20;44.90
22290;DHT22;11313;50.116;8.424;2023-06-14T09:26:10;25.20;44.90
22290;DHT22;11313;50.116;8.424;2023-06-14T09:28:37;25.20;44.90
22290;DHT22;11313;50.116;8.424;2023-06-14T09:31:06;25.20;45.00
22290;DHT22;11313;50.116;8.424;2023-06-14T09:33:34;25.20;45.00
22290;DHT22;11313;50.116;8.424;2023-06-14T09:35:59;25.20;45.00
22290;DHT22;11313;50.116;8.424;2023-06-14T09:38:25;25.20;45.00
22290;DHT22;11313;50.116;8.424;2023-06-14T09:40:51;25.20;45.00
22290;DHT22;11313;50.116;8.424;2023-06-14T09:43:17;25.20;45.00
22290;DHT22;11313;50.116;8.424;2023-06-14T09:45:44;25.20;45.00
22290;DHT22;11313;50.116;8.424;2023-06-14T09:48:11;25.10;44.90
22290;DHT22;11313;50.116;8.424;2023-06-14T09:50:37;25.20;45.00
22290;DHT22;11313;50.116;8.424;2023-06-14T09:53:06;25.20;45.00
22290;DHT22;11313;50.116;8.424;2023-06-14T09:55:34;25.20;45.00
22290;DHT22;11313;50.116;8.424;2023-06-14T09:58:04;25.20;45.00
22290;DHT22;11313;50.116;8.424;2023-06-14T10:00:31;25.20;45.00
22290;DHT22;11313;50.116;8.424;2023-06-14T10:03:03;25.20;45.00
22290;DHT22;11313;50.116;8.424;2023-06-14T10:05:29;25.20;45.00
22290;DHT22;11313;50.116;8.424;2023-06-14T10:08:05;25.20;45.00
22290;DHT22;11313;50.116;8.424;2023-06-14T10:10:33;25.20;45.00
22290;DHT22;11313;50.116;8.424;2023-06-14T10:12:59;25.20;45.00
22290;DHT22;11313;50.116;8.424;2023-06-14T10:15:35;25.20;45.00
22290;DHT22;11313;50.116;8.424;2023-06-14T10:23:30;25.20;45.00
22290;DHT22;11313;50.116;8.424;2023-06-14T10:25:57;25.30;45.10
22290;DHT22;11313;50.116;8.424;2023-06-14T10:28:25;25.20;45.00
22290;DHT22;11313;50.116;8.424;2023-06-14T10:31:11;25.30;45.10
22290;DHT22;11313;50.116;8.424;2023-06-14T10:33:56;25.30;45.10
22290;DHT22;11313;50.116;8.424;2023-06-14T10:39:12;25.30;45.20
22290;DHT22;11313;50.116;8.424;2023-06-14T10:41:40;25.30;45.10
22290;DHT22;11313;50.116;8.424;2023-06-14T10:46:38;25.30;45.10
22290;DHT22;11313;50.116;8.424;2023-06-14T10:49:03;25.30;45.10
22290;DHT22;11313;50.116;8.424;2023-06-14T10:51:30;25.30;45.20
22290;DHT22;11313;50.116;8.424;2023-06-14T10:54:11;25.30;45.20
22290;DHT22;11313;50.116;8.424;2023-06-14T10:56:38;25.30;45.10
22290;DHT22;11313;50.116;8.424;2023-06-14T10:59:03;25.30;45.20
22290;DHT22;11313;50.116;8.424;2023-06-14T11:04:07;25.30;45.20
22290;DHT22;11313;50.116;8.424;2023-06-14T11:06:45;25.30;45.20
22290;DHT22;11313;50.116;8.424;2023-06-14T11:09:38;25.30;45.20
22290;DHT22;11313;50.116;8.424;2023-06-14T11:12:10;25.30;45.10
22290;DHT22;11313;50.116;8.424;2023-06-14T11:14:38;25.30;45.20
22290;DHT22;11313;50.116;8.424;2023-06-14T11:17:03;25.30;45.20
22290;DHT22;11313;50.116;8.424;2023-06-14T11:19:29;25.30;45.20
22290;DHT22;11313;50.116;8.424;2023-06-14T11:21:55;25.30;45.20
22290;DHT22;11313;50.116;8.424;2023-06-14T11:24:21;25.30;45.20
22290;DHT22;11313;50.116;8.424;2023-06-14T11:26:47;25.30;45.20
22290;DHT22;11313;50.116;8.424;2023-06-14T11:29:15;25.30;45.20
22290;DHT22;11313;50.116;8.424;2023-06-14T11:31:44;25.30;45.20
22290;DHT22;11313;50.116;8.424;2023-06-14T11:34:12;25.30;45.20
22290;DHT22;11313;50.116;8.424;2023-06-14T11:36:38;25.30;45.20
22290;DHT22;11313;50.116;8.424;2023-06-14T11:39:05;25.30;45.20
22290;DHT22;11313;50.116;8.424;2023-06-14T11:41:40;25.30;45.20
22290;DHT22;11313;50.116;8.424;2023-06-14T11:44:07;25.30;45.20
22290;DHT22;11313;50.116;8.424;2023-06-14T11:46:33;25.30;45.20
22290;DHT22;11313;50.116;8.424;2023-06-14T11:48:58;25.30;45.20
22290;DHT22;11313;50.116;8.424;2023-06-14T11:51:24;25.30;45.30
22290;DHT22;11313;50.116;8.424;2023-06-14T11:53:50;25.10;45.10
22290;DHT22;11313;50.116;8.424;2023-06-14T11:56:16;25.40;45.30
22290;DHT22;11313;50.116;8.424;2023-06-14T11:58:43;25.30;45.30
22290;DHT22;11313;50.116;8.424;2023-06-14T12:01:09;25.30;45.30
22290;DHT22;11313;50.116;8.424;2023-06-14T12:03:34;25.30;45.30
22290;DHT22;11313;50.116;8.424;2023-06-14T12:06:05;25.40;45.30
22290;DHT22;11313;50.116;8.424;2023-06-14T12:08:37;25.30;45.30
22290;DHT22;11313;50.116;8.424;2023-06-14T12:11:07;25.40;45.30
22290;DHT22;11313;50.116;8.424;2023-06-14T12:13:38;25.40;45.40
22290;DHT22;11313;50.116;8.424;2023-06-14T12:16:04;25.40;45.30
22290;DHT22;11313;50.116;8.424;2023-06-14T12:18:37;25.40;45.40
22290;DHT22;11313;50.116;8.424;2023-06-14T12:21:04;25.40;45.30
22290;DHT22;11313;50.116;8.424;2023-06-14T12:23:44;25.40;45.40
22290;DHT22;11313;50.116;8.424;2023-06-14T12:26:16;25.40;45.40
22290;DHT22;11313;50.116;8.424;2023-06-14T12:28:43;25.40;45.40
22290;DHT22;11313;50.116;8.424;2023-06-14T12:31:10;25.40;45.40
22290;DHT22;11313;50.116;8.424;2023-06-14T12:33:36;25.40;45.40
22290;DHT22;11313;50.116;8.424;2023-06-14T12:36:06;25.40;45.40
22290;DHT22;11313;50.116;8.424;2023-06-14T12:38:33;25.40;45.40
22290;DHT22;11313;50.116;8.424;2023-06-14T12:40:58;25.40;45.40
22290;DHT22;11313;50.116;8.424;2023-06-14T12:43:24;25.40;45.40
22290;DHT22;11313;50.116;8.424;2023-06-14T12:45:49;25.40;45.40
22290;DHT22;11313;50.116;8.424;2023-06-14T12:48:15;25.40;45.40
22290;DHT22;11313;50.116;8.424;2023-06-14T12:50:41;25.40;45.40
22290;DHT22;11313;50.116;8.424;2023-06-14T12:53:07;25.40;45.40
22290;DHT22;11313;50.116;8.424;2023-06-14T12:55:32;25.40;45.40
22290;DHT22;11313;50.116;8.424;2023-06-14T12:57:58;25.40;45.40
22290;DHT22;11313;50.116;8.424;2023-06-14T13:00:23;25.40;45.40
22290;DHT22;11313;50.116;8.424;2023-06-14T13:02:51;25.40;45.40
22290;DHT22;11313;50.116;8.424;2023-06-14T13:05:17;25.40;45.40
22290;DHT22;11313;50.116;8.424;2023-06-14T13:07:43;25.40;45.40
22290;DHT22;11313;50.116;8.424;2023-06-14T13:10:09;25.40;45.40
22290;DHT22;11313;50.116;8.424;2023-06-14T13:12:34;25.40;45.40
22290;DHT22;11313;50.116;8.424;2023-06-14T13:15:00;25.40;45.40
22290;DHT22;11313;50.116;8.424;2023-06-14T13:17:25;25.40;45.40
22290;DHT22;11313;50.116;8.424;2023-06-14T13:19:51;25.40;45.40
22290;DHT22;11313;50.116;8.424;2023-06-14T13:22:16;25.50;45.50
22290;DHT22;11313;50.116;8.424;2023-06-14T13:24:42;25.50;45.50
22290;DHT22;11313;50.116;8.424;2023-06-14T13:27:08;25.40;45.40
22290;DHT22;11313;50.116;8.424;2023-06-14T13:29:33;25.50;45.50
22290;DHT22;11313;50.116;8.424;2023-06-14T13:32:01;25.50;45.50
22290;DHT22;11313;50.116;8.424;2023-06-14T13:34:27;25.50;45.50
22290;DHT22;11313;50.116;8.424;2023-06-14T13:36:52;25.50;45.50
22290;DHT22;11313;50.116;8.424;2023-06-14T13:39:19;25.50;45.50
22290;DHT22;11313;50.116;8.424;2023-06-14T13:41:51;25.50;45.50
22290;DHT22;11313;50.116;8.424;2023-06-14T13:44:16;25.50;45.50
22290;DHT22;11313;50.116;8.424;2023-06-14T13:46:44;25.50;45.50
22290;DHT22;11313;50.116;8.424;2023-06-14T13:49:10;25.50;45.50
22290;DHT22;11313;50.116;8.424;2023-06-14T13:51:36;25.50;45.50
22290;DHT22;11313;50.116;8.424;2023-06-14T13:54:01;25.50;45.50
22290;DHT22;11313;50.116;8.424;2023-06-14T13:56:27;25.50;45.50
22290;DHT22;11313;50.116;8.424;2023-06-14T13:58:52;25.50;45.60
22290;DHT22;11313;50.116;8.424;2023-06-14T14:01:18;25.50;46.20
22290;DHT22;11313;50.116;8.424;2023-06-14T14:03:46;25.50;45.50
22290;DHT22;11313;50.116;8.424;2023-06-14T14:06:12;25.50;45.50
22290;DHT22;11313;50.116;8.424;2023-06-14T14:08:37;25.50;45.50
22290;DHT22;11313;50.116;8.424;2023-06-14T14:11:03;25.50;45.50
22290;DHT22;11313;50.116;8.424;2023-06-14T14:13:28;25.50;45.50
22290;DHT22;11313;50.116;8.424;2023-06-14T14:15:54;25.50;45.50
22290;DHT22;11313;50.116;8.424;2023-06-14T14:18:19;25.50;45.50
22290;DHT22;11313;50.116;8.424;2023-06-14T14:20:48;25.50;45.50
22290;DHT22;11313;50.116;8.424;2023-06-14T14:23:14;25.50;45.50
22290;DHT22;11313;50.116;8.424;2023-06-14T14:25:40;25.50;45.60
22290;DHT22;11313;50.116;8.424;2023-06-14T14:28:05;25.50;45.50
22290;DHT22;11313;50.116;8.424;2023-06-14T14:30:31;25.50;45.60
22290;DHT22;11313;50.116;8.424;2023-06-14T14:32:56;25.50;45.50
22290;DHT22;11313;50.116;8.424;2023-06-14T14:35:22;25.50;45.50
22290;DHT22;11313;50.116;8.424;2023-06-14T14:37:49;25.50;45.60
22290;DHT22;11313;50.116;8.424;2023-06-14T14:40:15;25.50;45.60
22290;DHT22;11313;50.116;8.424;2023-06-14T14:42:40;25.50;45.50
22290;DHT22;11313;50.116;8.424;2023-06-14T14:45:06;25.50;45.60
22290;DHT22;11313;50.116;8.424;2023-06-14T14:47:32;25.50;45.50
22290;DHT22;11313;50.116;8.424;2023-06-14T14:49:57;25.50;45.60
22290;DHT22;11313;50.116;8.424;2023-06-14T14:52:23;25.50;45.50
22290;DHT22;11313;50.116;8.424;2023-06-14T14:54:48;25.50;45.50
22290;DHT22;11313;50.116;8.424;2023-06-14T14:57:14;25.50;45.60
22290;DHT22;11313;50.116;8.424;2023-06-14T14:59:39;25.50;45.60
22290;DHT22;11313;50.116;8.424;2023-06-14T15:02:05;25.50;45.60
22290;DHT22;11313;50.116;8.424;2023-06-14T15:04:31;25.50;45.60
22290;DHT22;11313;50.116;8.424;2023-06-14T15:06:57;25.50;45.60
22290;DHT22;11313;50.116;8.424;2023-06-14T15:09:23;25.50;45.60
22290;DHT22;11313;50.116;8.424;2023-06-14T15:11:48;25.50;45.60
22290;DHT22;11313;50.116;8.424;2023-06-14T15:14:14;25.60;45.60
22290;DHT22;11313;50.116;8.424;2023-06-14T15:16:40;25.50;45.60
22290;DHT22;11313;50.116;8.424;2023-06-14T15:19:05;25.60;45.60
22290;DHT22;11313;50.116;8.424;2023-06-14T15:21:31;25.60;45.60
22290;DHT22;11313;50.116;8.424;2023-06-14T15:23:56;25.60;45.60
22290;DHT22;11313;50.116;8.424;2023-06-14T15:26:22;25.60;45.60
22290;DHT22;11313;50.116;8.424;2023-06-14T15:28:50;25.60;45.60
22290;DHT22;11313;50.116;8.424;2023-06-14T15:31:15;25.60;45.60
22290;DHT22;11313;50.116;8.424;2023-06-14T15:33:41;25.60;46.30
22290;DHT22;11313;50.116;8.424;2023-06-14T15:36:06;25.60;45.60
22290;DHT22;11313;50.116;8.424;2023-06-14T15:38:34;25.60;45.60
22290;DHT22;11313;50.116;8.424;2023-06-14T15:41:00;25.60;45.60
22290;DHT22;11313;50.116;8.424;2023-06-14T15:43:26;25.60;45.60